sensor_id;sensor_type;location;lat;lon;timestamp;pressure;altitude;pressure_sealevel;temperature;humidity
74474;BME280;62922;-6.168;106.796;2023-06-14T00:01:26;101032.50;;;31.51;61.49
74474;BME280;62922;-6.168;106.796;2023-06-14T00:03:53;101001.63;;;31.38;62.09
74474;BME280;62922;-6.168;106.796;2023-06-14T00:06:19;101033.00;;;31.53;61.84
74474;BME280;62922;-6.168;106.796;2023-06-14T00:08:46;101028.50;;;31.52;62.15
74474;BME280;62922;-6.168;106.796;2023-06-14T00:11:12;101039.78;;;31.52;62.65
74474;BME280;62922;-6.168;106.796;2023-06-14T00:13:39;101004.59;;;31.33;63.46
74474;BME280;62922;-6.168;106.796;2023-06-14T00:16:08;101032.63;;;31.46;64.18
74474;BME280;62922;-6.168;106.796;2023-06-14T00:18:37;101050.09;;;31.57;64.41
74474;BME280;62922;-6.168;106.796;2023-06-14T00:21:04;101053.22;;;31.55;64.28
74474;BME280;62922;-6.168;106.796;2023-06-14T00:23:30;101062.84;;;31.63;63.90
74474;BME280;62922;-6.168;106.796;2023-06-14T00:25:59;101055.72;;;31.57;63.88
74474;BME280;62922;-6.168;106.796;2023-06-14T00:28:25;101064.69;;;31.59;64.04
74474;BME280;62922;-6.168;106.796;2023-06-14T00:30:52;101056.53;;;31.49;63.71
74474;BME280;62922;-6.168;106.796;2023-06-14T00:33:21;101040.59;;;31.36;64.25
74474;BME280;62922;-6.168;106.796;2023-06-14T00:35:47;101091.22;;;31.58;63.83
74474;BME280;62922;-6.168;106.796;2023-06-14T00:38:14;101039.75;;;31.27;64.33
74474;BME280;62922;-6.168;106.796;2023-06-14T00:40:40;101080.63;;;31.55;64.65
74474;BME280;62922;-6.168;106.796;2023-06-14T13:05:02;101135.50;;;32.60;61.39
74474;BME280;62922;-6.168;106.796;2023-06-14T13:07:30;101130.88;;;32.55;61.46
74474;BME280;62922;-6.168;106.796;2023-06-14T13:09:56;101142.47;;;32.63;61.56
74474;BME280;62922;-6.168;106.796;2023-06-14T13:12:23;101101.13;;;32.32;61.83
74474;BME280;62922;-6.168;106.796;2023-06-14T13:14:50;101123.09;;;32.44;61.40
74474;BME280;62922;-6.168;106.796;2023-06-14T13:17:16;101143.97;;;32.60;61.52
74474;BME280;62922;-6.168;106.796;2023-06-14T13:19:42;101144.66;;;32.57;62.15
74474;BME280;62922;-6.168;106.796;2023-06-14T13:22:11;101129.06;;;32.42;61.96
74474;BME280;62922;-6.168;106.796;2023-06-14T13:24:37;101164.59;;;32.61;62.29
74474;BME280;62922;-6.168;106.796;2023-06-14T13:27:04;101156.31;;;32.55;61.89
74474;BME280;62922;-6.168;106.796;2023-06-14T13:29:31;101157.63;;;32.49;62.30
74474;BME280;62922;-6.168;106.796;2023-06-14T13:31:59;101164.97;;;32.50;62.13
74474;BME280;62922;-6.168;106.796;2023-06-14T13:34:26;101180.22;;;32.58;62.23
74474;BME280;62922;-6.168;106.796;2023-06-14T13:36:53;101157.97;;;32.39;62.22
74474;BME280;62922;-6.168;106.796;2023-06-14T13:39:19;101161.59;;;32.40;61.75
74474;BME280;62922;-6.168;106.796;2023-06-14T13:41:46;101164.13;;;32.41;62.46
74474;BME280;62922;-6.168;106.796;2023-06-14T13:44:15;101189.38;;;32.55;61.99
74474;BME280;62922;-6.168;106.796;2023-06-14T13:46:44;101195.38;;;32.53;62.08
74474;BME280;62922;-6.168;106.796;2023-06-14T13:49:11;101158.81;;;32.31;62.21
74474;BME280;62922;-6.168;106.796;2023-06-14T13:51:38;101192.88;;;32.52;61.96
74474;BME280;62922;-6.168;106.796;2023-06-14T13:54:04;101200.50;;;32.51;62.46
74474;BME280;62922;-6.168;106.796;2023-06-14T13:56:33;101213.00;;;32.50;62.44
74474;BME280;62922;-6.168;106.796;2023-06-14T13:58:59;101219.13;;;32.52;61.78
74474;BME280;62922;-6.168;106.796;2023-06-14T14:01:26;101213.97;;;32.46;62.12
74474;BME280;62922;-6.168;106.796;2023-06-14T14:03:54;101185.56;;;32.25;62.42
74474;BME280;62922;-6.168;106.796;2023-06-14T14:06:20;101197.16;;;32.32;62.62
74474;BME280;62922;-6.168;106.796;2023-06-14T14:08:47;101199.84;;;32.29;62.11
74474;BME280;62922;-6.168;106.796;2023-06-14T14:11:13;101230.25;;;32.49;62.62
74474;BME280;62922;-6.168;106.796;2023-06-14T14:13:41;101235.75;;;32.45;62.19
74474;BME280;62922;-6.168;106.796;2023-06-14T14:16:11;101237.91;;;32.48;62.30
74474;BME280;62922;-6.168;106.796;2023-06-14T14:18:37;101238.72;;;32.49;61.83
74474;BME280;62922;-6.168;106.796;2023-06-14T14:21:04;101235.44;;;32.47;61.94
74474;BME280;62922;-6.168;106.796;2023-06-14T14:23:30;101206.50;;;32.24;61.64
74474;BME280;62922;-6.168;106.796;2023-06-14T14:25:57;101242.56;;;32.44;61.79
74474;BME280;62922;-6.168;106.796;2023-06-14T14:28:24;101246.25;;;32.45;62.17
74474;BME280;62922;-6.168;106.796;2023-06-14T14:30:50;101223.94;;;32.35;61.85
74474;BME280;62922;-6.168;106.796;2023-06-14T14:33:16;101229.59;;;32.35;62.20
74474;BME280;62922;-6.168;106.796;2023-06-14T14:35:44;101231.41;;;32.39;61.94
74474;BME280;62922;-6.168;106.796;2023-06-14T14:38:12;101240.69;;;32.40;62.09
74474;BME280;62922;-6.168;106.796;2023-06-14T14:40:40;101246.88;;;32.42;61.68
74474;BME280;62922;-6.168;106.796;2023-06-14T14:43:09;101246.34;;;32.40;61.88
74474;BME280;62922;-6.168;106.796;2023-06-14T14:45:36;101253.69;;;32.41;61.50
74474;BME280;62922;-6.168;106.796;2023-06-14T14:48:02;101222.09;;;32.22;61.83
74474;BME280;62922;-6.168;106.796;2023-06-14T14:50:29;101250.00;;;32.40;60.95
74474;BME280;62922;-6.168;106.796;2023-06-14T14:52:55;101215.94;;;32.20;61.68
74474;BME280;62922;-6.168;106.796;2023-06-14T14:55:22;101231.06;;;32.32;60.98
74474;BME280;62922;-6.168;106.796;2023-06-14T14:57:48;101250.69;;;32.37;61.14
74474;BME280;62922;-6.168;106.796;2023-06-14T15:00:16;101233.88;;;32.32;61.19
74474;BME280;62922;-6.168;106.796;2023-06-14T15:02:42;101237.88;;;32.31;61.67
74474;BME280;62922;-6.168;106.796;2023-06-14T15:05:08;101191.22;;;32.08;61.51
74474;BME280;62922;-6.168;106.796;2023-06-14T15:07:35;101223.94;;;32.26;61.27
74474;BME280;62922;-6.168;106.796;2023-06-14T15:10:06;101203.50;;;32.12;62.02
74474;BME280;62922;-6.168;106.796;2023-06-14T15:12:34;101223.25;;;32.29;62.10
74474;BME280;62922;-6.168;106.796;2023-06-14T15:15:01;101223.09;;;32.34;61.98
74474;BME280;62922;-6.168;106.796;2023-06-14T15:17:28;101221.59;;;32.37;62.75
74474;BME280;62922;-6.168;106.796;2023-06-14T15:19:54;101185.06;;;32.15;62.56
74474;BME280;62922;-6.168;106.796;2023-06-14T15:22:21;101220.13;;;32.39;63.60
74474;BME280;62922;-6.168;106.796;2023-06-14T15:24:47;101200.50;;;32.26;63.17
74474;BME280;62922;-6.168;106.796;2023-06-14T15:27:14;101167.81;;;32.08;62.73
74474;BME280;62922;-6.168;106.796;2023-06-14T15:29:42;101214.47;;;32.39;62.91
74474;BME280;62922;-6.168;106.796;2023-06-14T15:32:08;101205.50;;;32.37;63.19
74474;BME280;62922;-6.168;106.796;2023-06-14T15:34:35;101177.59;;;32.19;63.12
74474;BME280;62922;-6.168;106.796;2023-06-14T15:37:03;101170.44;;;32.13;63.42
74474;BME280;62922;-6.168;106.796;2023-06-14T15:39:30;101214.47;;;32.39;64.87
74474;BME280;62922;-6.168;106.796;2023-06-14T15:41:58;101163.16;;;32.12;64.24
74474;BME280;62922;-6.168;106.796;2023-06-14T15:44:25;101204.66;;;32.37;64.16
74474;BME280;62922;-6.168;106.796;2023-06-14T15:46:52;101199.00;;;32.37;63.68
74474;BME280;62922;-6.168;106.796;2023-06-14T15:49:18;101169.13;;;32.19;64.25
74474;BME280;62922;-6.168;106.796;2023-06-14T15:51:45;101198.34;;;32.31;64.27
74474;BME280;62922;-6.168;106.796;2023-06-14T15:54:11;101192.19;;;32.29;63.38
74474;BME280;62922;-6.168;106.796;2023-06-14T15:56:37;101182.22;;;32.23;63.60
74474;BME280;62922;-6.168;106.796;2023-06-14T15:59:04;101189.03;;;32.31;63.31
74474;BME280;62922;-6.168;106.796;2023-06-14T23:30:50;101018.34;;;31.34;62.70
74474;BME280;62922;-6.168;106.796;2023-06-14T23:33:22;101024.53;;;31.36;62.52
74474;BME280;62922;-6.168;106.796;2023-06-14T23:35:50;100996.59;;;31.26;62.85
74474;BME280;62922;-6.168;106.796;2023-06-14T23:38:18;100986.00;;;31.15;62.98
74474;BME280;62922;-6.168;106.796;2023-06-14T23:40:46;101025.34;;;31.37;62.43
74474;BME280;62922;-6.168;106.796;2023-06-14T23:43:15;101006.91;;;31.31;63.18
74474;BME280;62922;-6.168;106.796;2023-06-14T23:45:46;101004.22;;;31.17;62.52
74474;BME280;62922;-6.168;106.796;2023-06-14T23:48:15;101033.63;;;31.33;63.01
74474;BME280;62922;-6.168;106.796;2023-06-14T23:50:41;101033.13;;;31.31;63.15
74474;BME280;62922;-6.168;106.796;2023-06-14T23:53:07;101044.91;;;31.33;63.28
74474;BME280;62922;-6.168;106.796;2023-06-14T23:55:35;101041.59;;;31.31;62.99
74474;BME280;62922;-6.168;106.796;2023-06-14T23:58:03;101058.03;;;31.38;62.97
